Time;durP1;ratioP1;P1;durP2;ratioP2;P2;SDS_P1;SDS_P2;PMS_P1;PMS_P2;Temp;Humidity;BMP_temperature;BMP_pressure;BME280_temperature;BME280_humidity;BME280_pressure;Samples;Min_cycle;Max_cycle;Signal;HPM_P1;HPM_P2
2023/01/14 00:01:08;;;;;;;55.40;33.47;;;;;;;4.48;98.24;100817.09;1506299;86;22413;-85
2023/01/14 00:03:35;;;;;;;61.90;35.20;;;;;;;4.49;98.33;100817.95;1511021;86;21351;-85
2023/01/14 00:06:01;;;;;;;58.00;32.73;;;;;;;4.48;98.13;100813.16;1516919;85;21558;-84
2023/01/14 00:08:30;;;;;;;57.93;31.80;;;;;;;4.46;98.15;100815.06;1518474;85;21396;-83
2023/01/14 00:10:58;;;;;;;49.70;30.80;;;;;;;4.44;98.29;100808.23;1510569;85;21462;-84
2023/01/14 00:13:24;;;;;;;52.07;30.97;;;;;;;4.40;98.13;100814.15;1512600;86;21410;-84
2023/01/14 00:15:54;;;;;;;49.73;28.67;;;;;;;4.39;98.12;100816.86;1509298;86;21598;-83
2023/01/14 00:18:21;;;;;;;56.57;32.47;;;;;;;4.36;98.38;100816.58;1511221;86;21410;-85
2023/01/14 00:21:07;;;;;;;54.07;33.37;;;;;;;4.36;98.54;100813.95;1514888;86;21522;-82
2023/01/14 00:23:35;;;;;;;50.67;30.17;;;;;;;4.38;98.80;100806.02;1503451;85;22202;-83
2023/01/14 00:26:16;;;;;;;49.87;29.07;;;;;;;4.39;98.99;100803.28;1516775;86;21536;-86
2023/01/14 00:28:49;;;;;;;52.48;30.27;;;;;;;4.37;99.15;100796.45;1513769;86;21351;-84
2023/01/14 00:31:20;;;;;;;52.97;31.90;;;;;;;4.34;99.05;100790.93;1515702;85;21330;-83
2023/01/14 00:33:47;;;;;;;54.75;32.13;;;;;;;4.33;99.22;100799.74;1511517;86;22469;-83
2023/01/14 00:36:16;;;;;;;56.30;35.23;;;;;;;4.27;99.33;100793.59;1520398;86;21336;-83
2023/01/14 00:38:43;;;;;;;49.23;29.73;;;;;;;4.23;99.49;100794.27;1514697;85;21581;-83
2023/01/14 00:41:16;;;;;;;50.47;29.77;;;;;;;4.24;99.60;100799.03;1518491;86;21388;-84
2023/01/14 00:43:46;;;;;;;52.10;31.13;;;;;;;4.27;99.49;100809.31;1512030;85;21567;-80
2023/01/14 00:46:17;;;;;;;50.73;31.03;;;;;;;4.26;99.55;100812.87;1517024;86;21344;-82
2023/01/14 00:48:43;;;;;;;;;;;;;;;4.24;99.56;100821.30;1515840;86;21425;-83
2023/01/14 00:51:11;;;;;;;59.43;33.93;;;;;;;4.20;99.77;100819.80;1515537;86;20286;-81
2023/01/14 00:53:39;;;;;;;51.27;31.80;;;;;;;4.20;99.77;100819.80;1430956;86;21396;-81
2023/01/14 00:56:08;;;;;;;50.73;31.77;;;;;;;4.18;100.00;100823.00;1433906;86;22084;-82
2023/01/14 00:58:34;;;;;;;52.60;30.63;;;;;;;4.19;99.79;100822.89;1507847;86;22378;-84
2023/01/14 01:01:01;;;;;;;51.37;31.20;;;;;;;4.24;99.88;100816.06;1516057;85;22327;-83
2023/01/14 01:03:27;;;;;;;57.03;33.33;;;;;;;4.26;99.88;100816.81;1517989;86;21403;-82
2023/01/14 01:05:53;;;;;;;57.90;30.53;;;;;;;4.29;99.83;100819.23;1484162;86;21499;-84
2023/01/14 01:08:22;;;;;;;51.23;29.30;;;;;;;4.29;99.97;100811.38;1511868;86;22298;-84
2023/01/14 01:10:53;;;;;;;57.37;35.90;;;;;;;4.33;99.82;100814.62;1516387;85;21418;-83
2023/01/14 01:13:22;;;;;;;56.13;34.27;;;;;;;4.29;99.79;100813.99;1513947;86;21381;-82
2023/01/14 01:15:50;;;;;;;51.80;32.70;;;;;;;4.27;99.79;100811.45;1507378;86;21544;-83
2023/01/14 01:18:18;;;;;;;52.43;34.27;;;;;;;4.29;99.71;100816.61;1515461;85;22263;-83
2023/01/14 01:20:44;;;;;;;51.07;32.37;;;;;;;4.27;99.81;100818.01;1517239;85;21536;-81
2023/01/14 01:23:13;;;;;;;61.27;34.63;;;;;;;4.27;100.00;100818.48;1515626;86;21423;-82
2023/01/14 01:25:39;;;;;;;51.57;32.80;;;;;;;4.28;100.00;100816.22;1512746;86;21387;-82
2023/01/14 01:28:06;;;;;;;52.80;33.50;;;;;;;4.33;100.00;100815.47;1494228;86;22241;-81
2023/01/14 01:30:33;;;;;;;58.63;33.90;;;;;;;4.36;99.93;100808.72;1520431;86;21374;-82
2023/01/14 01:33:01;;;;;;;56.10;34.20;;;;;;;4.39;99.88;100812.45;1511789;86;21374;-82
2023/01/14 01:35:27;;;;;;;57.90;33.23;;;;;;;4.39;99.73;100814.23;1520531;86;22050;-83
2023/01/14 01:37:54;;;;;;;58.43;35.20;;;;;;;4.39;99.82;100806.37;1505674;85;22453;-82
2023/01/14 01:40:20;;;;;;;52.73;33.30;;;;;;;4.38;99.87;100802.92;1514755;85;21554;-81
2023/01/14 01:42:55;;;;;;;52.10;30.43;;;;;;;4.39;99.71;100812.45;1515535;86;21480;-80
2023/01/14 01:45:42;;;;;;;55.33;31.70;;;;;;;4.39;99.70;100814.23;1510771;85;21500;-85
2023/01/14 01:48:29;;;;;;;56.33;32.83;;;;;;;4.40;99.56;100806.73;1511914;86;21462;-84
2023/01/14 01:51:02;;;;;;;60.03;34.70;;;;;;;4.39;99.67;100804.59;1512848;86;21455;-84
2023/01/14 01:53:29;;;;;;;53.87;33.00;;;;;;;4.41;99.62;100805.81;1511443;86;21292;-81
2023/01/14 01:55:58;;;;;;;58.23;33.63;;;;;;;4.42;99.68;100803.55;1508848;86;21425;-81
2023/01/14 01:58:26;;;;;;;57.87;34.70;;;;;;;4.41;99.76;100803.19;1516398;85;21561;-82
2023/01/14 02:00:53;;;;;;;60.03;34.03;;;;;;;4.42;99.67;100803.55;1503866;86;22723;-82
2023/01/14 02:03:40;;;;;;;58.47;32.80;;;;;;;4.45;99.62;100803.35;1514678;86;21984;-81
2023/01/14 02:06:07;;;;;;;56.33;33.27;;;;;;;4.45;99.51;100798.95;1508824;86;21499;-81
2023/01/14 02:08:36;;;;;;;55.80;30.97;;;;;;;4.46;99.39;100799.34;1514126;86;21505;-81
2023/01/14 02:11:14;;;;;;;57.03;34.30;;;;;;;4.48;99.49;100790.88;1490979;86;21410;-82
2023/01/14 02:13:51;;;;;;;58.77;34.30;;;;;;;4.52;99.56;100791.07;1507651;85;21336;-81
2023/01/14 02:16:45;;;;;;;57.90;33.60;;;;;;;4.55;99.36;100793.13;1514038;86;21329;-82
2023/01/14 02:19:46;;;;;;;54.93;32.60;;;;;;;4.52;99.18;100784.52;1516004;86;22915;-82
2023/01/14 02:22:59;;;;;;;55.03;35.05;;;;;;;4.52;99.26;100787.14;1507460;85;21337;-84
2023/01/14 02:25:52;;;;;;;57.30;33.27;;;;;;;4.53;99.20;100785.35;1506993;85;21359;-83
2023/01/14 02:28:50;;;;;;;57.20;36.67;;;;;;;4.49;99.16;100780.79;1478398;86;21956;-85
2023/01/14 02:31:42;;;;;;;58.77;36.77;;;;;;;4.46;99.02;100786.23;1511876;85;22284;-83
2023/01/14 02:34:14;;;;;;;65.07;43.93;;;;;;;4.41;99.24;100783.53;1512051;85;22381;-83
2023/01/14 02:36:51;;;;;;;53.63;33.37;;;;;;;4.40;99.45;100782.70;1515087;85;22423;-83
2023/01/14 02:40:03;;;;;;;55.53;34.10;;;;;;;4.44;99.55;100784.17;1515427;86;21514;-82
2023/01/14 02:45:31;;;;;;;60.07;36.80;;;;;;;4.45;99.54;100787.62;1517547;85;21366;-83
2023/01/14 02:48:00;;;;;;;59.43;32.77;;;;;;;4.41;99.42;100780.44;1514333;86;22298;-83
2023/01/14 02:50:28;;;;;;;57.47;34.67;;;;;;;4.42;99.32;100774.25;1512684;86;21419;-84
2023/01/14 02:52:54;;;;;;;60.83;32.37;;;;;;;4.43;99.34;100774.64;1508084;86;21294;-82
2023/01/14 02:55:34;;;;;;;59.60;36.43;;;;;;;4.41;99.23;100771.27;1511270;85;21373;-83
2023/01/14 02:58:39;;;;;;;62.40;35.83;;;;;;;4.40;99.25;100772.22;1513176;86;21387;-81
2023/01/14 03:01:40;;;;;;;60.70;34.63;;;;;;;4.41;99.30;100767.34;1514964;86;21447;-83
2023/01/14 03:04:27;;;;;;;63.95;36.63;;;;;;;4.44;99.35;100763.20;1509987;86;22305;-84
2023/01/14 03:07:03;;;;;;;64.17;36.17;;;;;;;4.46;99.38;100767.02;1524294;86;21425;-83
2023/01/14 03:09:47;;;;;;;58.60;38.50;;;;;;;4.47;99.47;100758.23;1516678;86;21425;-83
2023/01/14 03:12:37;;;;;;;69.00;41.13;;;;;;;4.46;99.91;100753.47;1505616;86;21588;-81
2023/01/14 03:15:23;;;;;;;72.50;39.43;;;;;;;4.43;99.49;100754.98;1509215;86;22269;-81
2023/01/14 03:18:10;;;;;;;65.80;37.93;;;;;;;4.39;99.59;100756.10;1521626;86;21571;-81
2023/01/14 03:20:41;;;;;;;57.27;36.07;;;;;;;4.38;99.58;100757.05;1509476;86;22335;-81
2023/01/14 03:23:11;;;;;;;68.30;40.95;;;;;;;4.39;99.55;100760.51;1510461;86;21380;-81
2023/01/14 03:25:42;;;;;;;61.83;38.63;;;;;;;4.41;99.61;100758.16;1487686;86;21418;-80
2023/01/14 03:28:13;;;;;;;68.07;37.25;;;;;;;4.41;99.63;100763.41;1508392;86;22372;-81
2023/01/14 03:30:43;;;;;;;67.42;38.55;;;;;;;4.44;99.67;100760.58;1516858;86;21374;-83
2023/01/14 03:33:21;;;;;;;74.70;40.43;;;;;;;4.46;99.59;100759.16;1512410;85;21528;-83
2023/01/14 03:35:49;;;;;;;74.90;43.00;;;;;;;4.44;99.54;100758.44;1511062;86;21388;-85
2023/01/14 03:38:23;;;;;;;77.17;41.50;;;;;;;4.44;99.58;100761.89;1513382;86;21380;-83
2023/01/14 03:40:54;;;;;;;65.07;40.23;;;;;;;4.44;99.67;100771.06;1511951;86;21462;-84
2023/01/14 03:43:26;;;;;;;73.70;42.78;;;;;;;4.42;99.70;100772.94;1517410;86;21396;-84
2023/01/14 03:45:53;;;;;;;73.00;41.07;;;;;;;4.43;99.58;100777.26;1513922;86;21432;-84
2023/01/14 03:48:19;;;;;;;61.30;36.43;;;;;;;4.46;99.61;100784.05;1515553;85;22394;-84
2023/01/14 03:50:59;;;;;;;68.33;37.50;;;;;;;4.49;99.50;100784.72;1514743;85;21344;-81
2023/01/14 03:53:48;;;;;;;64.95;37.50;;;;;;;4.53;99.53;100782.73;1510948;86;21521;-82
2023/01/14 03:56:29;;;;;;;70.53;37.57;;;;;;;4.58;99.71;100785.90;1514115;86;21380;-80
2023/01/14 03:59:00;;;;;;;85.97;42.15;;;;;;;4.62;99.61;100793.08;1505512;86;21588;-80
2023/01/14 04:01:44;;;;;;;77.53;41.23;;;;;;;4.63;99.36;100796.06;1515098;86;22416;-81
2023/01/14 04:04:11;;;;;;;66.27;36.83;;;;;;;4.63;99.30;100800.86;1518873;86;21491;-81
2023/01/14 04:06:39;;;;;;;66.30;36.73;;;;;;;4.62;99.08;100799.64;1516624;85;22368;-81
2023/01/14 04:09:07;;;;;;;57.30;34.53;;;;;;;4.60;98.91;100794.48;1516006;86;21403;-81
2023/01/14 04:11:33;;;;;;;60.77;35.87;;;;;;;4.59;99.20;100803.30;1511689;86;21321;-81
2023/01/14 04:16:44;;;;;;;61.87;37.10;;;;;;;4.58;99.08;100802.10;1520647;85;21462;-83
2023/01/14 04:19:10;;;;;;;60.93;35.07;;;;;;;4.62;99.30;100804.41;1516772;86;21402;-84
2023/01/14 04:21:37;;;;;;;64.50;36.90;;;;;;;4.64;99.15;100801.70;1509648;86;21865;-84
2023/01/14 04:24:03;;;;;;;62.93;38.33;;;;;;;4.66;99.34;100808.97;1515588;85;21604;-84
2023/01/14 04:26:30;;;;;;;66.37;39.33;;;;;;;4.68;99.33;100808.41;1511506;85;21366;-83
2023/01/14 04:28:56;;;;;;;69.53;41.07;;;;;;;4.70;99.24;100813.09;1515527;85;21499;-84
2023/01/14 04:31:23;;;;;;;65.07;38.30;;;;;;;4.71;99.25;100814.28;1513924;85;22138;-84
2023/01/14 04:33:49;;;;;;;70.20;42.03;;;;;;;4.70;99.32;100818.34;1514546;86;21536;-84
2023/01/14 04:36:16;;;;;;;69.93;40.50;;;;;;;4.69;99.09;100820.13;1517958;86;21506;-83
2023/01/14 04:38:42;;;;;;;66.53;39.37;;;;;;;4.71;99.01;100825.25;1506799;85;22304;-84
2023/01/14 04:42:26;;;;;;;64.17;39.63;;;;;;;4.72;98.95;100821.70;1511923;86;21632;-83
2023/01/14 04:43:37;;;;;;;65.17;38.37;;;;;;;4.72;98.95;100815.98;1515231;86;21499;-83
2023/01/14 04:46:03;;;;;;;69.33;39.13;;;;;;;4.73;98.79;100818.14;1511679;86;21411;-83
2023/01/14 04:48:29;;;;;;;74.97;43.70;;;;;;;4.75;98.85;100812.33;1510575;85;21478;-82
2023/01/14 04:51:00;;;;;;;68.00;41.60;;;;;;;4.77;98.90;100814.36;1506330;86;22114;-82
2023/01/14 04:53:26;;;;;;;70.65;41.00;;;;;;;4.75;98.70;100813.64;1507099;86;21815;-87
2023/01/14 04:55:55;;;;;;;66.43;39.63;;;;;;;4.74;98.72;100814.56;1511062;86;21491;-85
2023/01/14 04:58:23;;;;;;;65.57;39.67;;;;;;;4.70;98.59;100815.72;1510295;86;22209;-86
2023/01/14 05:00:51;;;;;;;68.20;39.93;;;;;;;4.70;98.53;100816.55;1512349;85;21321;-85
2023/01/14 05:03:17;;;;;;;59.10;36.13;;;;;;;4.68;98.48;100825.45;1505043;85;21840;-84
2023/01/14 05:05:44;;;;;;;62.10;36.70;;;;;;;4.69;98.57;100825.81;1503200;86;22298;-85
2023/01/14 05:08:12;;;;;;;66.90;40.73;;;;;;;4.73;98.74;100826.00;1511931;86;21529;-85
2023/01/14 05:10:40;;;;;;;70.90;43.37;;;;;;;4.75;98.75;100825.44;1515839;85;21476;-85
2023/01/14 05:13:07;;;;;;;76.60;43.87;;;;;;;4.77;98.71;100829.25;1516321;86;21308;-86
2023/01/14 05:15:42;;;;;;;70.97;41.77;;;;;;;4.72;98.39;100832.20;1511650;86;22231;-86
2023/01/14 05:18:12;;;;;;;77.80;44.13;;;;;;;4.71;98.54;100833.95;1504629;85;21587;-83
2023/01/14 05:20:39;;;;;;;75.33;42.37;;;;;;;4.72;98.68;100838.75;1508661;86;21292;-86
2023/01/14 05:23:11;;;;;;;72.37;42.47;;;;;;;4.72;98.55;100846.14;1512859;85;21487;-84
2023/01/14 05:25:38;;;;;;;66.80;40.27;;;;;;;4.71;98.52;100843.61;1510714;86;21536;-84
2023/01/14 05:28:09;;;;;;;69.23;39.77;;;;;;;4.72;98.64;100845.31;1512573;86;21388;-83
2023/01/14 05:30:35;;;;;;;68.72;39.18;;;;;;;4.74;98.77;100846.03;1517863;86;21529;-83
2023/01/14 05:33:01;;;;;;;80.43;43.80;;;;;;;4.75;98.73;100843.80;1511887;86;21388;-81
2023/01/14 05:35:28;;;;;;;76.27;47.20;;;;;;;4.74;98.77;100851.27;1517205;86;22438;-84
2023/01/14 05:37:55;;;;;;;72.67;44.47;;;;;;;4.72;98.75;100855.80;1517621;85;21894;-83
2023/01/14 05:40:21;;;;;;;77.80;43.47;;;;;;;4.68;98.73;100864.78;1495981;86;21586;-82
2023/01/14 05:45:48;;;;;;;81.47;47.80;;;;;;;4.63;98.75;100861.61;1493320;86;21388;-84
2023/01/14 05:48:11;;;;;;;69.27;41.90;;;;;;;4.63;99.00;100861.61;1503856;86;21670;-83
2023/01/14 05:50:39;;;;;;;69.40;41.27;;;;;;;4.61;99.20;100861.72;1515558;85;21535;-84
2023/01/14 05:53:06;;;;;;;71.63;41.03;;;;;;;4.61;99.30;100863.52;1508680;85;22334;-83
2023/01/14 05:55:35;;;;;;;72.43;41.73;;;;;;;4.59;99.46;100864.07;1511440;86;21521;-83
2023/01/14 05:58:04;;;;;;;75.43;43.80;;;;;;;4.58;99.42;100861.92;1509692;86;22283;-83
2023/01/14 06:06:33;;;;;;;70.45;43.25;;;;;;;4.51;99.79;100856.69;1513697;85;21403;-82
2023/01/14 06:09:05;;;;;;;74.97;45.17;;;;;;;4.49;99.72;100858.11;1503399;86;21544;-83
2023/01/14 06:11:32;;;;;;;74.43;45.87;;;;;;;4.53;100.00;100862.68;1515378;86;21403;-83
2023/01/14 06:14:00;;;;;;;86.93;53.37;;;;;;;4.56;100.00;100859.86;1518679;86;21372;-84
2023/01/14 06:16:32;;;;;;;79.77;49.80;;;;;;;4.61;100.00;100871.37;1512197;86;21477;-83
2023/01/14 06:18:58;;;;;;;80.77;44.93;;;;;;;4.63;100.00;100871.66;1524208;86;21402;-83
2023/01/14 06:21:30;;;;;;;78.00;46.80;;;;;;;4.67;100.00;100876.22;1513731;86;22375;-82
2023/01/14 06:23:58;;;;;;;86.40;51.40;;;;;;;4.66;100.00;100883.25;1499774;86;21352;-84
2023/01/14 06:26:27;;;;;;;94.40;53.50;;;;;;;4.64;100.00;100890.36;1515587;86;21486;-83
2023/01/14 06:29:00;;;;;;;87.83;50.80;;;;;;;4.61;100.00;100887.94;1515953;86;21344;-83
2023/01/14 06:31:27;;;;;;;85.53;49.73;;;;;;;4.62;100.00;100894.02;1510351;86;22310;-83
2023/01/14 06:33:55;;;;;;;88.63;49.77;;;;;;;4.63;100.00;100887.83;1510810;85;21535;-84
2023/01/14 06:36:22;;;;;;;85.83;51.10;;;;;;;4.64;100.00;100893.46;1508801;86;21410;-85
2023/01/14 06:38:49;;;;;;;81.87;48.67;;;;;;;4.64;100.00;100894.77;1488155;86;21491;-85
2023/01/14 06:41:15;;;;;;;81.07;47.53;;;;;;;4.63;100.00;100898.31;1509459;85;21469;-84
2023/01/14 06:43:42;;;;;;;86.50;49.10;;;;;;;4.63;100.00;100894.37;1513987;86;22476;-84
2023/01/14 06:46:10;;;;;;;80.33;48.00;;;;;;;4.62;100.00;100897.48;1515850;85;21337;-79
2023/01/14 06:48:37;;;;;;;87.87;47.50;;;;;;;4.63;100.00;100893.07;1517302;86;21314;-82
2023/01/14 06:51:07;;;;;;;70.47;43.73;;;;;;;4.62;100.00;100888.78;1490050;86;21446;-81
2023/01/14 06:53:34;;;;;;;79.20;45.40;;;;;;;4.64;100.00;100893.46;1517733;86;21483;-82
2023/01/14 06:56:07;;;;;;;76.80;45.33;;;;;;;4.66;100.00;100891.56;1512376;86;22394;-80
2023/01/14 06:58:34;;;;;;;86.87;50.97;;;;;;;4.70;100.00;100898.31;1514700;86;21285;-82
2023/01/14 07:01:05;;;;;;;87.63;48.97;;;;;;;4.74;100.00;100899.30;1514979;86;21451;-81
2023/01/14 07:03:32;;;;;;;89.97;52.23;;;;;;;4.78;100.00;100901.77;1518096;86;22387;-80
2023/01/14 07:05:59;;;;;;;94.50;54.20;;;;;;;4.80;100.00;100904.63;1514411;86;21958;-82
2023/01/14 07:08:26;;;;;;;94.37;56.90;;;;;;;4.78;100.00;100910.47;1516123;85;21690;-83
2023/01/14 07:10:53;;;;;;;95.57;53.27;;;;;;;4.74;100.00;100907.65;1517311;85;21322;-85
2023/01/14 07:13:21;;;;;;;88.97;52.20;;;;;;;4.72;100.00;100918.25;1512331;86;22526;-84
2023/01/14 07:15:48;;;;;;;77.57;47.70;;;;;;;4.72;100.00;100915.63;1515729;86;22261;-82
2023/01/14 07:18:15;;;;;;;83.87;47.57;;;;;;;4.73;100.00;100923.86;1506595;86;21499;-81
2023/01/14 07:20:42;;;;;;;85.67;47.57;;;;;;;4.75;100.00;100925.09;1516408;86;21381;-81
2023/01/14 07:23:10;;;;;;;81.00;46.03;;;;;;;4.77;100.00;100924.50;1516781;85;21395;-80
2023/01/14 07:25:37;;;;;;;92.73;50.77;;;;;;;4.75;100.00;100924.61;1508059;86;21410;-82
2023/01/14 07:28:04;;;;;;;84.90;49.73;;;;;;;4.73;100.00;100925.64;1510509;86;21359;-82
2023/01/14 07:30:31;;;;;;;86.17;48.07;;;;;;;4.74;100.00;100928.63;1505509;86;21359;-82
2023/01/14 07:32:59;;;;;;;83.67;50.40;;;;;;;4.75;100.00;100925.09;1517765;86;22452;-80
2023/01/14 07:35:27;;;;;;;80.87;46.80;;;;;;;4.75;100.00;100926.40;1512655;86;21307;-79
2023/01/14 07:37:57;;;;;;;81.30;47.17;;;;;;;4.75;100.00;100934.27;1509953;86;21366;-80
2023/01/14 07:40:28;;;;;;;77.57;47.43;;;;;;;4.80;100.00;100940.03;1517536;86;21380;-79
2023/01/14 07:42:57;;;;;;;82.60;46.53;;;;;;;4.86;100.00;100934.86;1509412;85;21561;-80
2023/01/14 07:45:25;;;;;;;90.93;50.73;;;;;;;4.86;100.00;100939.67;1501027;86;21373;-79
2023/01/14 07:47:51;;;;;;;91.93;55.73;;;;;;;4.87;100.00;100941.34;1510730;86;21507;-80
2023/01/14 07:50:19;;;;;;;101.53;56.83;;;;;;;4.87;100.00;100943.97;1515920;86;21351;-80
2023/01/14 07:52:55;;;;;;;94.70;55.33;;;;;;;4.85;100.00;100948.45;1515345;85;22150;-80
2023/01/14 07:55:30;;;;;;;88.30;52.73;;;;;;;4.81;100.00;100950.91;1511076;86;21432;-79
2023/01/14 07:57:58;;;;;;;91.57;52.00;;;;;;;4.77;100.00;100948.09;1512779;85;21507;-80
2023/01/14 08:00:25;;;;;;;86.60;51.00;;;;;;;4.79;100.00;100951.95;1509973;86;21543;-79
2023/01/14 08:02:51;;;;;;;88.30;51.50;;;;;;;4.79;100.00;100948.85;1489139;86;21402;-80
2023/01/14 08:05:17;;;;;;;88.00;49.63;;;;;;;4.81;100.00;100946.98;1516734;86;21439;-80
2023/01/14 08:07:44;;;;;;;80.17;48.80;;;;;;;4.83;100.00;100955.57;1517126;85;21466;-79
2023/01/14 08:10:11;;;;;;;94.23;55.33;;;;;;;4.84;100.00;100958.59;1515473;86;21455;-80
2023/01/14 08:12:37;;;;;;;95.63;54.73;;;;;;;4.77;100.00;100957.28;1510686;86;21359;-80
2023/01/14 08:15:09;;;;;;;109.73;61.77;;;;;;;4.72;100.00;100957.59;1513976;85;22439;-80
2023/01/14 08:17:35;;;;;;;101.33;59.10;;;;;;;4.71;100.00;100960.30;1522602;86;21484;-80
2023/01/14 08:20:03;;;;;;;94.77;57.63;;;;;;;4.70;100.00;100966.48;1514643;85;22571;-80
2023/01/14 08:22:30;;;;;;;101.10;55.43;;;;;;;4.72;100.00;100960.69;1514911;85;21307;-80
2023/01/14 08:24:57;;;;;;;93.63;55.13;;;;;;;4.72;100.00;100965.92;1517556;85;22349;-80
2023/01/14 08:27:27;;;;;;;104.47;56.27;;;;;;;4.73;100.00;100961.05;1520927;86;21396;-80
2023/01/14 08:29:54;;;;;;;101.50;57.33;;;;;;;4.75;100.00;100963.11;1503086;86;21388;-79
2023/01/14 08:32:21;;;;;;;114.17;57.67;;;;;;;4.80;100.00;100963.64;1518112;86;21528;-80
2023/01/14 08:34:47;;;;;;;109.63;59.20;;;;;;;4.85;100.00;100959.42;1511430;85;21483;-80
2023/01/14 08:37:13;;;;;;;101.70;55.20;;;;;;;4.89;100.00;100960.45;1518196;85;21462;-80
2023/01/14 08:39:40;;;;;;;91.27;49.60;;;;;;;4.93;100.00;100960.61;1514581;85;21388;-80
2023/01/14 08:42:06;;;;;;;110.97;54.23;;;;;;;4.94;100.00;100960.98;1493320;86;22475;-80
2023/01/14 08:44:33;;;;;;;94.00;51.50;;;;;;;4.90;100.00;100963.44;1516890;85;21868;-80
2023/01/14 08:47:00;;;;;;;104.40;57.00;;;;;;;4.90;100.00;100971.30;1514037;85;22923;-80
2023/01/14 08:49:26;;;;;;;100.03;52.57;;;;;;;4.93;100.00;100972.89;1517378;85;21329;-80
2023/01/14 08:51:55;;;;;;;85.27;47.33;;;;;;;5.00;100.00;100973.33;1514999;86;21402;-78
2023/01/14 08:54:22;;;;;;;98.57;54.97;;;;;;;5.11;100.00;100966.92;1510741;86;21514;-79
2023/01/14 08:56:48;;;;;;;100.87;53.97;;;;;;;5.18;100.00;100968.23;1517429;85;22290;-80
2023/01/14 08:59:14;;;;;;;95.70;50.73;;;;;;;5.26;100.00;100970.33;1517897;86;21373;-80
2023/01/14 09:01:41;;;;;;;100.87;52.13;;;;;;;5.32;100.00;100973.42;1503395;86;22240;-80
2023/01/14 09:04:09;;;;;;;96.73;49.30;;;;;;;5.35;100.00;100965.34;1512615;85;21573;-80
2023/01/14 09:17:04;;;;;;;100.00;52.40;;;;;;;5.32;100.00;100970.80;1504306;86;22348;-79
2023/01/14 09:33:21;;;;;;;80.03;43.80;;;;;;;5.57;100.00;100970.47;1425596;84;21588;31
2023/01/14 09:35:47;;;;;;;67.72;36.73;;;;;;;5.59;100.00;100973.38;1431918;85;21256;-80
2023/01/14 09:38:13;;;;;;;60.30;36.03;;;;;;;5.61;99.91;100983.75;1435639;87;21248;-77
2023/01/14 09:40:40;;;;;;;66.07;36.73;;;;;;;5.63;99.99;100984.50;1432813;85;22144;-78
2023/01/14 09:43:15;;;;;;;72.67;37.90;;;;;;;5.65;99.86;100985.25;1432495;86;21225;-80
2023/01/14 09:45:42;;;;;;;58.37;34.37;;;;;;;5.64;99.16;100981.80;1427858;90;21417;-81
2023/01/14 09:48:23;;;;;;;66.57;36.83;;;;;;;5.64;99.04;100983.58;1421231;86;21329;-79
2023/01/14 09:51:37;;;;;;;71.30;37.53;;;;;;;5.56;98.70;100985.87;1569758;87;21190;-78
2023/01/14 09:54:32;;;;;;;69.13;38.50;;;;;;;5.55;98.74;100982.41;1429627;87;21225;-79
2023/01/14 09:57:23;;;;;;;72.90;38.80;;;;;;;5.46;98.69;100982.98;1409394;86;21277;-78
2023/01/14 10:00:23;;;;;;;64.90;36.33;;;;;;;5.47;99.23;100983.83;1410874;86;22372;-81
2023/01/14 10:03:00;;;;;;;63.30;35.77;;;;;;;5.49;99.23;100983.27;1408593;87;21257;-79
2023/01/14 10:05:29;;;;;;;64.33;34.27;;;;;;;5.56;99.67;100978.83;1561782;87;21448;-79
2023/01/14 10:08:03;;;;;;;61.23;33.80;;;;;;;5.65;99.78;100976.06;1403336;87;21329;-79
2023/01/14 10:10:35;;;;;;;73.93;38.33;;;;;;;5.65;98.62;100981.31;1553765;87;21351;-79
2023/01/14 10:13:06;;;;;;;70.73;38.93;;;;;;;5.65;98.75;100973.44;1484271;87;21329;-79
2023/01/14 10:15:59;;;;;;;75.47;37.40;;;;;;;5.63;98.59;100974.83;1497359;85;22283;-79
2023/01/14 10:18:55;;;;;;;67.77;35.93;;;;;;;5.64;98.79;100973.08;1439335;88;22388;-80
2023/01/14 10:21:51;;;;;;;64.43;35.10;;;;;;;5.65;98.74;100970.33;1468024;88;21361;-80
2023/01/14 10:24:20;;;;;;;60.20;34.67;;;;;;;5.62;98.17;100966.59;1454624;88;21869;-80
2023/01/14 10:26:49;;;;;;;71.33;37.13;;;;;;;5.60;98.22;100963.70;1511035;86;21503;-89
2023/01/14 10:29:21;;;;;;;75.70;37.53;;;;;;;5.62;98.35;100967.08;1510059;86;21432;-87
2023/01/14 10:31:53;;;;;;;72.87;38.00;;;;;;;5.58;97.74;100967.77;1510668;86;21358;-90
2023/01/14 10:34:47;;;;;;;76.50;40.20;;;;;;;5.63;98.30;100962.19;1509382;86;21520;-89
2023/01/14 10:37:14;;;;;;;69.70;35.97;;;;;;;5.69;98.70;100956.52;1508784;86;22443;-82
2023/01/14 10:39:50;;;;;;;84.60;44.60;;;;;;;5.79;99.39;100956.28;1504268;86;21897;-81
2023/01/14 10:42:25;;;;;;;79.60;42.37;;;;;;;5.89;99.16;100957.31;1509675;86;21417;-81
2023/01/14 10:44:53;;;;;;;82.53;45.20;;;;;;;5.85;97.57;100961.59;1515330;86;21528;-81
2023/01/14 10:47:19;;;;;;;82.40;44.03;;;;;;;5.89;97.72;100963.88;1502119;86;21402;-80
2023/01/14 10:49:59;;;;;;;81.17;42.03;;;;;;;5.91;97.67;100964.27;1517115;86;21514;-80
2023/01/14 10:52:34;;;;;;;85.17;43.23;;;;;;;5.93;97.76;100957.11;1510232;86;21402;-79
2023/01/14 10:55:14;;;;;;;82.50;41.63;;;;;;;5.99;98.04;100957.58;1490121;86;21314;-80
2023/01/14 10:58:09;;;;;;;72.32;39.20;;;;;;;5.95;96.84;100956.09;1503734;86;21572;-88
2023/01/14 11:00:41;;;;;;;71.97;37.93;;;;;;;5.88;97.19;100965.32;1513385;86;21557;-84
2023/01/14 11:03:30;;;;;;;73.23;38.17;;;;;;;5.92;96.85;100969.41;1511643;86;21396;-87
2023/01/14 11:06:01;;;;;;;73.67;38.93;;;;;;;5.98;97.16;100962.92;1513120;86;21410;-88
2023/01/14 11:08:53;;;;;;;73.90;39.90;;;;;;;6.07;97.47;100953.09;1507414;86;22372;-84
2023/01/14 11:11:25;;;;;;;81.37;40.80;;;;;;;6.10;96.54;100951.59;1505671;86;21358;-88
2023/01/14 11:13:54;;;;;;;77.10;39.20;;;;;;;6.08;95.77;100953.00;1515603;86;21498;-87
2023/01/14 11:16:29;;;;;;;72.27;36.87;;;;;;;6.03;95.21;100947.22;1517258;86;21528;-89
2023/01/14 11:19:03;;;;;;;129.77;53.83;;;;;;;5.98;95.02;100950.62;1509882;86;21456;-90
2023/01/14 11:21:35;;;;;;;67.60;37.00;;;;;;;5.98;95.39;100952.41;1503669;86;21373;-85
2023/01/14 11:24:07;;;;;;;70.77;36.73;;;;;;;5.93;97.41;100947.91;1485300;86;22275;-89
2023/01/14 11:26:39;;;;;;;78.70;40.00;;;;;;;6.07;97.26;100946.52;1513777;86;21919;-89
2023/01/14 11:29:20;;;;;;;80.37;41.87;;;;;;;6.13;96.80;100942.63;1515339;86;21507;-89
2023/01/14 11:31:48;;;;;;;76.87;40.35;;;;;;;6.14;96.27;100935.97;1510692;86;21388;-88
2023/01/14 11:34:39;;;;;;;82.67;41.77;;;;;;;6.16;96.27;100931.45;1509927;86;21284;-87
2023/01/14 11:37:16;;;;;;;80.93;42.57;;;;;;;6.19;96.30;100928.61;1511472;86;21307;-89
2023/01/14 11:39:51;;;;;;;79.87;40.43;;;;;;;6.22;96.24;100936.28;1505020;86;21381;-88
2023/01/14 11:42:42;;;;;;;77.43;40.87;;;;;;;6.23;96.01;100931.86;1515179;86;21876;-86
2023/01/14 11:45:16;;;;;;;75.52;38.38;;;;;;;6.26;96.21;100933.79;1515243;86;21544;-91
2023/01/14 11:47:53;;;;;;;79.53;38.17;;;;;;;6.30;96.17;100936.59;1517283;86;21586;-91
2023/01/14 11:50:32;;;;;;;75.17;38.43;;;;;;;6.37;96.44;100935.67;1508566;86;21381;-92
2023/01/14 11:53:18;;;;;;;77.87;39.63;;;;;;;6.43;95.98;100943.61;1514496;86;21314;-89
2023/01/14 11:55:49;;;;;;;79.70;39.57;;;;;;;6.39;94.96;100947.38;1507118;86;22349;-92
2023/01/14 11:58:25;;;;;;;80.32;40.58;;;;;;;6.32;94.61;100945.66;1513219;86;21343;-95
2023/01/14 12:01:00;;;;;;;92.57;45.60;;;;;;;6.22;94.52;100942.02;1512990;86;21410;-92
2023/01/14 12:03:38;;;;;;;86.07;42.60;;;;;;;6.11;94.57;100940.12;1510329;86;21358;-95
2023/01/14 12:06:15;;;;;;;89.07;42.30;;;;;;;6.12;95.33;100933.08;1494364;86;21381;-93
2023/01/14 12:08:45;;;;;;;78.00;41.47;;;;;;;6.15;95.78;100924.98;1516608;86;22281;-90
2023/01/14 12:11:20;;;;;;;87.80;43.83;;;;;;;6.13;94.65;100922.47;1507024;86;21328;-94
2023/01/14 12:16:50;;;;;;;80.30;40.80;;;;;;;6.12;94.68;100923.40;1518889;86;21306;-93
2023/01/14 12:19:41;;;;;;;83.75;41.88;;;;;;;6.13;95.22;100923.78;1515908;86;21808;-94